Canberra International Airport
YSCB : now visible

Airfield :











YOU CAN JOIN US ON...

 
LOGIN :

Register | Disclaimer

   EN    FR    IT 

 









Legend :    VFR   Marginal VFR   IFR   Intensive IFR   Very Intensive IFR
Visi :
Ceiling :
>= 8 km
>= 3000ft
5 to 8 km
1000 to 3000 ft
1500m to 5 km
500 to 1000 ft
800 to 1500m
200 to 500 ft
< 800m
< 200 ft
Symbols :   Thunderstorms  Fog  Heavy snow  Heavy precipitations  Wind > 20 kt






- Airport Elevation : 1886 ft
- IATA code : CBR


YSCB - Canberra International

CURRENT METAR :
  • 230514Z AUTO 29018G28KT 9999 // NCD 12/04 Q1011

EXPIRED METARs :
  • 230500Z AUTO 30017KT 9999 // SCT085 13/04 Q1011 NOSIG
  • 230442Z AUTO 30016G30KT 9999 // SCT049 SCT061 SCT073 12/04 Q1011
  • 230400Z AUTO 28017KT 9999 // SCT057 13/04 Q1011
  • 230347Z AUTO 28018KT 9999 // SCT032 SCT041 SCT057 14/06 Q1011
  • 230340Z AUTO 31020KT 9999 // SCT032 SCT041 SCT049 13/05 Q1011
  • 230300Z AUTO 30018G30KT 9999 // SCT039 SCT050 SCT062 13/04 Q1012 NOSIG
  • 230252Z AUTO 29017G30KT 9999 // SCT039 BKN054 14/04 Q1011 NOSIG
  • 230230Z AUTO 29019KT 9999 // SCT035 SCT043 BKN054 12/04 Q1012 NOSIG
  • 230218Z AUTO 29017G27KT 9999 // SCT037 SCT045 BKN054 12/04 Q1012 NOSIG

TAF AMD TAF YSCB
Valid from the 23 at 00:00 until the 24 at 00:00 UTC


222334Z 2300/2400 30018G28KT 9999 SCT035
FM230600 30014KT 9999 -SHRA SCT030
FM231000 30010KT 9999 NSW SCT030
YMMM FIR / Oceania



MET'MAP, your aeronautical weather chart ! - Copyright ORBIFLY December 2007 - Disclaimer

ORBIFLY MET'MAP TEAM :

Programming & Development : Alexandra Zaïnal
Concept & original design : Baudouin d'Aumeries
Assistance for programming : Marc-Olivier Méhu
Technical & hardware support : Manuel Goepfert

Contact : metmap@orbifly.com




SOURCES & CREDITS :

   NOAA       Earth
Advisory